sensor_id;sensor_type;location;lat;lon;timestamp;pressure;altitude;pressure_sealevel;temperature;humidity
7474;BME280;3778;42.572;23.426;2024-01-27T00:00:22;94068.16;;;-0.68;64.80
7474;BME280;3778;42.572;23.426;2024-01-27T00:02:48;94064.91;;;-0.62;64.13
7474;BME280;3778;42.572;23.426;2024-01-27T00:05:13;94064.13;;;-0.62;64.94
7474;BME280;3778;42.572;23.426;2024-01-27T00:07:39;94055.16;;;-0.65;66.19
7474;BME280;3778;42.572;23.426;2024-01-27T00:10:06;94038.91;;;-0.49;64.71
7474;BME280;3778;42.572;23.426;2024-01-27T00:12:31;94032.88;;;-0.55;63.64
7474;BME280;3778;42.572;23.426;2024-01-27T00:14:57;94043.34;;;-0.58;64.19
7474;BME280;3778;42.572;23.426;2024-01-27T00:17:22;94046.31;;;-0.54;64.17
7474;BME280;3778;42.572;23.426;2024-01-27T00:19:51;94047.50;;;-0.50;63.69
7474;BME280;3778;42.572;23.426;2024-01-27T00:22:16;94049.78;;;-0.55;63.25
7474;BME280;3778;42.572;23.426;2024-01-27T00:24:46;94038.88;;;-0.56;63.72
7474;BME280;3778;42.572;23.426;2024-01-27T00:27:11;94040.47;;;-0.55;64.09
7474;BME280;3778;42.572;23.426;2024-01-27T00:29:37;94033.34;;;-0.66;65.01
7474;BME280;3778;42.572;23.426;2024-01-27T00:32:02;94036.81;;;-0.67;64.68
7474;BME280;3778;42.572;23.426;2024-01-27T00:34:28;94037.03;;;-0.68;64.15
7474;BME280;3778;42.572;23.426;2024-01-27T00:36:53;94045.94;;;-0.94;65.90
7474;BME280;3778;42.572;23.426;2024-01-27T00:39:19;94042.09;;;-0.90;66.16
7474;BME280;3778;42.572;23.426;2024-01-27T00:41:45;94049.00;;;-0.98;66.97
7474;BME280;3778;42.572;23.426;2024-01-27T00:44:10;94053.88;;;-1.18;67.64
7474;BME280;3778;42.572;23.426;2024-01-27T00:46:39;94046.94;;;-1.10;66.37
7474;BME280;3778;42.572;23.426;2024-01-27T00:49:04;94045.38;;;-1.11;67.39
7474;BME280;3778;42.572;23.426;2024-01-27T00:51:30;94036.34;;;-1.20;68.30
7474;BME280;3778;42.572;23.426;2024-01-27T00:53:55;94047.50;;;-1.29;68.36
7474;BME280;3778;42.572;23.426;2024-01-27T00:56:20;94044.47;;;-1.24;68.38
7474;BME280;3778;42.572;23.426;2024-01-27T00:58:46;94052.50;;;-1.21;67.98
7474;BME280;3778;42.572;23.426;2024-01-27T01:01:11;94049.25;;;-1.15;67.73
7474;BME280;3778;42.572;23.426;2024-01-27T01:03:36;94051.72;;;-1.00;66.68
7474;BME280;3778;42.572;23.426;2024-01-27T01:06:02;94038.81;;;-1.05;67.77
7474;BME280;3778;42.572;23.426;2024-01-27T01:08:28;94034.91;;;-1.08;67.37
7474;BME280;3778;42.572;23.426;2024-01-27T01:10:53;94027.66;;;-1.11;67.46
7474;BME280;3778;42.572;23.426;2024-01-27T01:13:19;94016.06;;;-1.05;67.34
7474;BME280;3778;42.572;23.426;2024-01-27T01:15:44;94018.72;;;-1.13;67.54
7474;BME280;3778;42.572;23.426;2024-01-27T01:18:09;94011.53;;;-1.10;66.79
7474;BME280;3778;42.572;23.426;2024-01-27T01:20:35;94022.72;;;-0.97;66.79
7474;BME280;3778;42.572;23.426;2024-01-27T01:23:00;94013.13;;;-1.09;68.04
7474;BME280;3778;42.572;23.426;2024-01-27T01:25:26;94020.75;;;-1.02;67.40
7474;BME280;3778;42.572;23.426;2024-01-27T01:27:51;94034.38;;;-1.03;67.49
7474;BME280;3778;42.572;23.426;2024-01-27T01:30:17;94021.06;;;-0.90;66.25
7474;BME280;3778;42.572;23.426;2024-01-27T01:32:43;94040.69;;;-0.92;67.42
7474;BME280;3778;42.572;23.426;2024-01-27T01:35:10;94028.09;;;-0.86;66.62
7474;BME280;3778;42.572;23.426;2024-01-27T01:37:35;94018.94;;;-0.87;66.89
7474;BME280;3778;42.572;23.426;2024-01-27T01:40:01;94018.19;;;-1.09;67.80
7474;BME280;3778;42.572;23.426;2024-01-27T01:42:28;94023.22;;;-0.87;67.26
7474;BME280;3778;42.572;23.426;2024-01-27T01:44:54;94020.50;;;-0.86;67.47
7474;BME280;3778;42.572;23.426;2024-01-27T01:47:20;94014.63;;;-0.71;66.12
7474;BME280;3778;42.572;23.426;2024-01-27T01:49:47;94007.91;;;-0.58;65.54
7474;BME280;3778;42.572;23.426;2024-01-27T01:52:12;94008.88;;;-0.59;67.58
7474;BME280;3778;42.572;23.426;2024-01-27T01:54:41;94003.38;;;-0.62;66.94
7474;BME280;3778;42.572;23.426;2024-01-27T01:57:07;94003.91;;;-0.67;67.03
7474;BME280;3778;42.572;23.426;2024-01-27T01:59:32;94001.19;;;-0.72;67.40
7474;BME280;3778;42.572;23.426;2024-01-27T02:01:58;94003.16;;;-0.67;67.41
7474;BME280;3778;42.572;23.426;2024-01-27T02:04:23;94002.06;;;-0.58;66.48
7474;BME280;3778;42.572;23.426;2024-01-27T02:06:48;93996.41;;;-0.60;66.82
7474;BME280;3778;42.572;23.426;2024-01-27T02:09:14;94001.56;;;-0.47;66.63
7474;BME280;3778;42.572;23.426;2024-01-27T02:11:39;93995.03;;;-0.35;66.25
7474;BME280;3778;42.572;23.426;2024-01-27T02:14:06;93998.06;;;-0.18;65.05
7474;BME280;3778;42.572;23.426;2024-01-27T02:16:31;93990.63;;;-0.19;65.42
7474;BME280;3778;42.572;23.426;2024-01-27T02:18:56;93988.09;;;-0.19;66.02
7474;BME280;3778;42.572;23.426;2024-01-27T02:21:22;93982.00;;;-0.25;66.45
7474;BME280;3778;42.572;23.426;2024-01-27T02:23:47;93981.84;;;-0.23;66.39
7474;BME280;3778;42.572;23.426;2024-01-27T02:26:13;93960.81;;;-0.24;65.34
7474;BME280;3778;42.572;23.426;2024-01-27T02:28:38;93965.66;;;-0.29;66.90
7474;BME280;3778;42.572;23.426;2024-01-27T02:31:03;93971.34;;;-0.20;66.41
7474;BME280;3778;42.572;23.426;2024-01-27T02:33:29;93973.13;;;-0.14;65.76
7474;BME280;3778;42.572;23.426;2024-01-27T02:35:54;93965.06;;;-0.24;66.87
7474;BME280;3778;42.572;23.426;2024-01-27T02:38:20;93969.00;;;-0.22;66.67
7474;BME280;3778;42.572;23.426;2024-01-27T02:40:45;93965.28;;;-0.19;66.66
7474;BME280;3778;42.572;23.426;2024-01-27T02:43:11;93972.75;;;-0.11;67.49
7474;BME280;3778;42.572;23.426;2024-01-27T02:45:37;93979.66;;;0.02;66.14
7474;BME280;3778;42.572;23.426;2024-01-27T02:48:03;93978.44;;;-0.03;66.69
7474;BME280;3778;42.572;23.426;2024-01-27T02:50:29;93980.97;;;-0.03;65.76
7474;BME280;3778;42.572;23.426;2024-01-27T02:52:54;93977.50;;;0.05;64.85
7474;BME280;3778;42.572;23.426;2024-01-27T02:55:20;93969.34;;;0.10;65.15
7474;BME280;3778;42.572;23.426;2024-01-27T02:57:45;93967.34;;;-0.02;66.33
7474;BME280;3778;42.572;23.426;2024-01-27T03:00:11;93953.91;;;-0.02;65.91
7474;BME280;3778;42.572;23.426;2024-01-27T03:02:36;93956.47;;;0.05;65.07
7474;BME280;3778;42.572;23.426;2024-01-27T03:05:02;93956.09;;;0.08;65.86
7474;BME280;3778;42.572;23.426;2024-01-27T03:07:27;93954.34;;;0.08;65.05
7474;BME280;3778;42.572;23.426;2024-01-27T03:09:52;93959.00;;;0.05;65.33
7474;BME280;3778;42.572;23.426;2024-01-27T03:12:18;93969.50;;;0.02;65.92
7474;BME280;3778;42.572;23.426;2024-01-27T03:14:43;93966.06;;;-0.19;66.66
7474;BME280;3778;42.572;23.426;2024-01-27T03:17:09;93965.88;;;-0.24;65.47
7474;BME280;3778;42.572;23.426;2024-01-27T03:19:35;93964.19;;;-0.10;66.15
7474;BME280;3778;42.572;23.426;2024-01-27T03:22:00;93960.75;;;0.04;64.42
7474;BME280;3778;42.572;23.426;2024-01-27T03:24:26;93965.47;;;0.14;65.94
7474;BME280;3778;42.572;23.426;2024-01-27T03:26:51;93963.91;;;0.06;65.75
7474;BME280;3778;42.572;23.426;2024-01-27T03:29:16;93959.84;;;0.18;65.25
7474;BME280;3778;42.572;23.426;2024-01-27T03:31:42;93960.81;;;0.24;64.74
7474;BME280;3778;42.572;23.426;2024-01-27T03:34:07;93965.31;;;0.22;65.43
7474;BME280;3778;42.572;23.426;2024-01-27T03:36:33;93967.06;;;0.21;65.72
7474;BME280;3778;42.572;23.426;2024-01-27T03:38:58;93977.44;;;0.26;64.46
7474;BME280;3778;42.572;23.426;2024-01-27T03:41:24;93975.50;;;0.35;65.10
7474;BME280;3778;42.572;23.426;2024-01-27T03:43:49;93979.63;;;0.43;64.12
7474;BME280;3778;42.572;23.426;2024-01-27T03:46:15;93979.03;;;0.47;64.23
7474;BME280;3778;42.572;23.426;2024-01-27T03:48:41;93969.50;;;0.49;62.83
7474;BME280;3778;42.572;23.426;2024-01-27T03:51:06;93960.53;;;0.53;62.85
7474;BME280;3778;42.572;23.426;2024-01-27T03:53:32;93960.75;;;0.59;62.99
7474;BME280;3778;42.572;23.426;2024-01-27T03:55:58;93958.00;;;0.60;63.64
7474;BME280;3778;42.572;23.426;2024-01-27T03:58:30;93957.97;;;0.47;64.56
7474;BME280;3778;42.572;23.426;2024-01-27T04:00:56;93950.78;;;0.50;64.73
7474;BME280;3778;42.572;23.426;2024-01-27T04:03:22;93952.19;;;0.66;63.43
7474;BME280;3778;42.572;23.426;2024-01-27T04:05:47;93959.63;;;0.68;63.98
7474;BME280;3778;42.572;23.426;2024-01-27T04:08:13;93956.31;;;0.67;65.06
7474;BME280;3778;42.572;23.426;2024-01-27T04:10:38;93947.09;;;0.60;65.86
7474;BME280;3778;42.572;23.426;2024-01-27T04:13:04;93967.00;;;0.56;66.44
7474;BME280;3778;42.572;23.426;2024-01-27T04:15:29;93970.88;;;0.52;67.19
7474;BME280;3778;42.572;23.426;2024-01-27T04:17:55;93964.44;;;0.43;67.63
7474;BME280;3778;42.572;23.426;2024-01-27T04:20:21;93972.41;;;0.46;68.57
7474;BME280;3778;42.572;23.426;2024-01-27T04:22:46;93972.63;;;0.45;69.82
7474;BME280;3778;42.572;23.426;2024-01-27T04:25:12;93969.31;;;0.51;70.83
7474;BME280;3778;42.572;23.426;2024-01-27T04:27:38;93963.47;;;0.50;72.34
7474;BME280;3778;42.572;23.426;2024-01-27T04:30:07;93958.41;;;0.50;72.34
7474;BME280;3778;42.572;23.426;2024-01-27T04:32:34;93948.81;;;0.46;73.63
7474;BME280;3778;42.572;23.426;2024-01-27T04:34:59;93957.75;;;0.42;74.18
7474;BME280;3778;42.572;23.426;2024-01-27T04:37:24;93951.09;;;0.28;75.40
7474;BME280;3778;42.572;23.426;2024-01-27T04:39:50;93949.88;;;0.17;77.15
7474;BME280;3778;42.572;23.426;2024-01-27T04:42:16;93953.78;;;0.13;77.98
7474;BME280;3778;42.572;23.426;2024-01-27T04:44:41;93954.78;;;0.18;77.64
7474;BME280;3778;42.572;23.426;2024-01-27T04:47:07;93952.63;;;0.22;76.54
7474;BME280;3778;42.572;23.426;2024-01-27T04:49:33;93950.91;;;0.29;77.18
7474;BME280;3778;42.572;23.426;2024-01-27T04:51:58;93958.34;;;0.37;77.21
7474;BME280;3778;42.572;23.426;2024-01-27T04:54:23;93958.59;;;0.49;78.02
7474;BME280;3778;42.572;23.426;2024-01-27T04:56:50;93952.97;;;0.67;76.66
7474;BME280;3778;42.572;23.426;2024-01-27T04:59:15;93952.19;;;0.66;77.02
7474;BME280;3778;42.572;23.426;2024-01-27T05:01:44;93955.69;;;0.72;75.99
7474;BME280;3778;42.572;23.426;2024-01-27T05:04:10;93956.88;;;0.69;76.09
7474;BME280;3778;42.572;23.426;2024-01-27T05:06:36;93957.69;;;0.83;75.55
7474;BME280;3778;42.572;23.426;2024-01-27T05:09:01;93957.69;;;0.83;75.92
7474;BME280;3778;42.572;23.426;2024-01-27T05:11:31;93958.47;;;0.84;77.51
7474;BME280;3778;42.572;23.426;2024-01-27T05:13:57;93961.75;;;0.71;77.45
7474;BME280;3778;42.572;23.426;2024-01-27T05:16:22;93964.50;;;0.83;76.55
7474;BME280;3778;42.572;23.426;2024-01-27T05:18:47;93969.41;;;0.91;77.17
7474;BME280;3778;42.572;23.426;2024-01-27T05:21:14;93972.53;;;0.86;77.69
7474;BME280;3778;42.572;23.426;2024-01-27T05:23:39;93965.91;;;0.98;77.51
7474;BME280;3778;42.572;23.426;2024-01-27T05:26:05;93971.38;;;1.02;77.51
7474;BME280;3778;42.572;23.426;2024-01-27T05:28:31;93978.19;;;1.01;77.31
7474;BME280;3778;42.572;23.426;2024-01-27T05:30:57;93970.56;;;0.88;77.29
7474;BME280;3778;42.572;23.426;2024-01-27T05:33:22;93965.06;;;0.78;79.72
7474;BME280;3778;42.572;23.426;2024-01-27T05:35:48;93965.28;;;0.83;78.19
7474;BME280;3778;42.572;23.426;2024-01-27T05:38:13;93974.19;;;0.52;80.10
7474;BME280;3778;42.572;23.426;2024-01-27T05:40:38;93975.53;;;0.48;80.79
7474;BME280;3778;42.572;23.426;2024-01-27T05:43:04;93971.28;;;0.56;82.10
7474;BME280;3778;42.572;23.426;2024-01-27T05:45:29;93965.47;;;0.68;80.36
7474;BME280;3778;42.572;23.426;2024-01-27T05:47:56;93972.69;;;0.85;81.49
7474;BME280;3778;42.572;23.426;2024-01-27T05:50:22;93957.50;;;0.91;81.28
7474;BME280;3778;42.572;23.426;2024-01-27T05:52:47;93968.03;;;0.88;79.83
7474;BME280;3778;42.572;23.426;2024-01-27T05:55:12;93963.13;;;0.67;80.63
7474;BME280;3778;42.572;23.426;2024-01-27T05:57:38;93965.22;;;0.50;82.09
7474;BME280;3778;42.572;23.426;2024-01-27T06:00:04;93964.63;;;0.54;83.22
7474;BME280;3778;42.572;23.426;2024-01-27T06:02:29;93970.50;;;0.55;83.24
7474;BME280;3778;42.572;23.426;2024-01-27T06:04:55;93968.78;;;0.69;81.64
7474;BME280;3778;42.572;23.426;2024-01-27T06:07:20;93971.91;;;0.71;82.25
7474;BME280;3778;42.572;23.426;2024-01-27T06:09:46;93966.81;;;0.71;81.39
7474;BME280;3778;42.572;23.426;2024-01-27T06:12:11;93975.81;;;0.67;82.01
7474;BME280;3778;42.572;23.426;2024-01-27T06:14:36;93983.78;;;0.64;82.22
7474;BME280;3778;42.572;23.426;2024-01-27T06:17:04;93978.13;;;0.62;82.85
7474;BME280;3778;42.572;23.426;2024-01-27T06:19:30;93990.97;;;0.60;81.95
7474;BME280;3778;42.572;23.426;2024-01-27T06:21:55;93998.44;;;0.68;83.19
7474;BME280;3778;42.572;23.426;2024-01-27T06:24:21;93993.16;;;0.70;83.42
7474;BME280;3778;42.572;23.426;2024-01-27T06:26:46;94007.22;;;0.72;82.99
7474;BME280;3778;42.572;23.426;2024-01-27T06:29:11;94007.63;;;0.69;83.27
7474;BME280;3778;42.572;23.426;2024-01-27T06:31:37;94015.25;;;0.76;84.57
7474;BME280;3778;42.572;23.426;2024-01-27T06:34:02;94015.66;;;0.79;83.63
7474;BME280;3778;42.572;23.426;2024-01-27T06:36:28;94018.94;;;0.73;83.60
7474;BME280;3778;42.572;23.426;2024-01-27T06:38:53;94014.81;;;0.66;84.22
7474;BME280;3778;42.572;23.426;2024-01-27T06:41:19;94016.56;;;0.65;83.99
7474;BME280;3778;42.572;23.426;2024-01-27T06:43:45;94014.22;;;0.64;85.70
7474;BME280;3778;42.572;23.426;2024-01-27T06:46:10;94025.03;;;0.79;85.17
7474;BME280;3778;42.572;23.426;2024-01-27T06:48:36;94028.56;;;0.91;85.04
7474;BME280;3778;42.572;23.426;2024-01-27T06:51:01;94030.28;;;0.91;85.93
7474;BME280;3778;42.572;23.426;2024-01-27T06:53:27;94026.28;;;1.16;86.16
7474;BME280;3778;42.572;23.426;2024-01-27T06:55:52;94031.16;;;1.31;85.64
7474;BME280;3778;42.572;23.426;2024-01-27T06:58:18;94051.28;;;1.39;85.11
7474;BME280;3778;42.572;23.426;2024-01-27T07:00:43;94017.88;;;1.49;84.85
7474;BME280;3778;42.572;23.426;2024-01-27T07:03:10;94034.63;;;2.23;78.59
7474;BME280;3778;42.572;23.426;2024-01-27T07:05:35;94009.09;;;2.94;76.16
7474;BME280;3778;42.572;23.426;2024-01-27T07:08:06;94006.66;;;2.74;76.77
7474;BME280;3778;42.572;23.426;2024-01-27T07:10:32;94005.88;;;2.74;77.18
7474;BME280;3778;42.572;23.426;2024-01-27T07:12:57;94024.16;;;2.95;74.04
7474;BME280;3778;42.572;23.426;2024-01-27T07:15:22;94010.59;;;3.08;74.66
7474;BME280;3778;42.572;23.426;2024-01-27T07:17:49;93997.69;;;3.35;73.30
7474;BME280;3778;42.572;23.426;2024-01-27T07:20:14;94007.06;;;3.41;72.10
7474;BME280;3778;42.572;23.426;2024-01-27T07:22:39;93983.59;;;3.57;71.56
7474;BME280;3778;42.572;23.426;2024-01-27T07:25:05;94000.97;;;3.67;70.27
7474;BME280;3778;42.572;23.426;2024-01-27T07:27:32;94006.34;;;4.02;66.03
7474;BME280;3778;42.572;23.426;2024-01-27T07:29:57;93985.25;;;4.13;65.20
7474;BME280;3778;42.572;23.426;2024-01-27T07:32:23;93993.47;;;4.15;65.68
7474;BME280;3778;42.572;23.426;2024-01-27T07:34:48;93984.75;;;4.23;63.12
7474;BME280;3778;42.572;23.426;2024-01-27T07:37:13;93998.50;;;4.22;64.64
7474;BME280;3778;42.572;23.426;2024-01-27T07:39:39;93995.78;;;4.17;64.09
7474;BME280;3778;42.572;23.426;2024-01-27T07:42:04;94034.13;;;4.10;63.97
7474;BME280;3778;42.572;23.426;2024-01-27T07:44:30;94056.88;;;3.87;64.79
7474;BME280;3778;42.572;23.426;2024-01-27T07:46:55;94084.75;;;3.82;64.15
7474;BME280;3778;42.572;23.426;2024-01-27T07:49:21;94057.25;;;3.65;64.61
7474;BME280;3778;42.572;23.426;2024-01-27T07:51:46;94045.63;;;3.44;65.43
7474;BME280;3778;42.572;23.426;2024-01-27T07:54:11;94062.38;;;3.34;65.19
7474;BME280;3778;42.572;23.426;2024-01-27T07:56:40;94045.53;;;3.26;65.63
7474;BME280;3778;42.572;23.426;2024-01-27T07:59:06;94057.28;;;3.27;66.17
7474;BME280;3778;42.572;23.426;2024-01-27T08:01:39;94069.06;;;3.21;66.53
7474;BME280;3778;42.572;23.426;2024-01-27T08:04:04;94050.13;;;3.17;66.50
7474;BME280;3778;42.572;23.426;2024-01-27T08:06:29;94048.13;;;3.19;64.70
7474;BME280;3778;42.572;23.426;2024-01-27T08:08:55;94064.63;;;3.17;65.93
7474;BME280;3778;42.572;23.426;2024-01-27T08:11:21;94049.13;;;3.18;64.32
7474;BME280;3778;42.572;23.426;2024-01-27T08:13:46;94066.19;;;3.18;65.77
7474;BME280;3778;42.572;23.426;2024-01-27T08:16:12;94129.63;;;3.19;65.72
7474;BME280;3778;42.572;23.426;2024-01-27T08:18:40;94055.00;;;3.19;65.24
7474;BME280;3778;42.572;23.426;2024-01-27T08:21:09;94111.59;;;3.21;65.81
7474;BME280;3778;42.572;23.426;2024-01-27T08:23:34;94059.28;;;3.25;64.76
7474;BME280;3778;42.572;23.426;2024-01-27T08:26:00;94067.09;;;3.30;64.24
7474;BME280;3778;42.572;23.426;2024-01-27T08:28:25;94098.31;;;3.50;60.19
7474;BME280;3778;42.572;23.426;2024-01-27T08:30:51;94060.63;;;3.59;60.53
7474;BME280;3778;42.572;23.426;2024-01-27T08:33:16;94070.34;;;3.69;59.25
7474;BME280;3778;42.572;23.426;2024-01-27T08:35:42;94091.78;;;3.86;58.98
7474;BME280;3778;42.572;23.426;2024-01-27T08:38:07;94057.41;;;3.95;58.61
7474;BME280;3778;42.572;23.426;2024-01-27T08:40:34;94082.84;;;4.02;58.13
7474;BME280;3778;42.572;23.426;2024-01-27T08:43:01;94075.56;;;4.06;56.88
7474;BME280;3778;42.572;23.426;2024-01-27T08:45:26;94074.00;;;4.04;58.10
7474;BME280;3778;42.572;23.426;2024-01-27T08:47:52;94073.34;;;3.91;57.53
7474;BME280;3778;42.572;23.426;2024-01-27T08:50:17;94071.63;;;3.85;58.37
7474;BME280;3778;42.572;23.426;2024-01-27T08:52:43;94093.53;;;3.92;58.73
7474;BME280;3778;42.572;23.426;2024-01-27T08:55:08;94102.78;;;3.87;59.73
7474;BME280;3778;42.572;23.426;2024-01-27T08:57:34;94099.88;;;3.83;60.75
7474;BME280;3778;42.572;23.426;2024-01-27T08:59:59;94087.13;;;3.83;60.71
7474;BME280;3778;42.572;23.426;2024-01-27T09:02:25;94082.97;;;3.89;58.98
7474;BME280;3778;42.572;23.426;2024-01-27T09:04:50;94099.22;;;3.88;59.56
7474;BME280;3778;42.572;23.426;2024-01-27T09:07:16;94094.63;;;4.03;58.15
7474;BME280;3778;42.572;23.426;2024-01-27T09:09:41;94094.78;;;4.08;58.26
7474;BME280;3778;42.572;23.426;2024-01-27T09:12:07;94090.63;;;4.14;58.69
7474;BME280;3778;42.572;23.426;2024-01-27T09:14:33;94099.03;;;4.14;61.19
7474;BME280;3778;42.572;23.426;2024-01-27T09:17:01;94107.75;;;4.07;59.34
7474;BME280;3778;42.572;23.426;2024-01-27T09:19:27;94108.53;;;4.07;58.39
7474;BME280;3778;42.572;23.426;2024-01-27T09:21:53;94126.66;;;4.17;57.39
7474;BME280;3778;42.572;23.426;2024-01-27T09:24:18;94122.41;;;4.11;58.26
7474;BME280;3778;42.572;23.426;2024-01-27T09:26:43;94115.19;;;4.08;58.60
7474;BME280;3778;42.572;23.426;2024-01-27T09:29:09;94150.50;;;4.04;57.96
7474;BME280;3778;42.572;23.426;2024-01-27T09:31:35;94116.00;;;4.02;58.65
7474;BME280;3778;42.572;23.426;2024-01-27T09:34:00;94117.50;;;4.10;59.44
7474;BME280;3778;42.572;23.426;2024-01-27T09:36:26;94124.59;;;4.08;59.83
7474;BME280;3778;42.572;23.426;2024-01-27T09:38:52;94131.47;;;4.07;59.80
7474;BME280;3778;42.572;23.426;2024-01-27T09:41:18;94132.66;;;4.04;60.76
7474;BME280;3778;42.572;23.426;2024-01-27T09:43:45;94114.41;;;4.08;59.76
7474;BME280;3778;42.572;23.426;2024-01-27T09:46:15;94116.19;;;4.07;60.65
7474;BME280;3778;42.572;23.426;2024-01-27T09:48:41;94117.13;;;4.13;59.73
7474;BME280;3778;42.572;23.426;2024-01-27T09:51:08;94127.59;;;4.23;58.81
7474;BME280;3778;42.572;23.426;2024-01-27T09:53:34;94127.59;;;4.23;59.53
7474;BME280;3778;42.572;23.426;2024-01-27T09:56:00;94115.91;;;4.15;58.83
7474;BME280;3778;42.572;23.426;2024-01-27T09:58:28;94116.19;;;4.07;60.59
7474;BME280;3778;42.572;23.426;2024-01-27T10:00:59;94106.84;;;3.94;60.33
7474;BME280;3778;42.572;23.426;2024-01-27T10:03:26;94126.28;;;3.95;60.12
7474;BME280;3778;42.572;23.426;2024-01-27T10:05:53;94156.09;;;3.95;61.68
7474;BME280;3778;42.572;23.426;2024-01-27T10:08:18;94139.88;;;3.83;60.68
7474;BME280;3778;42.572;23.426;2024-01-27T10:10:44;94129.09;;;3.81;62.09
7474;BME280;3778;42.572;23.426;2024-01-27T10:13:10;94137.22;;;3.71;62.36
7474;BME280;3778;42.572;23.426;2024-01-27T10:15:38;94133.25;;;3.75;63.33
7474;BME280;3778;42.572;23.426;2024-01-27T10:18:05;94144.66;;;3.72;62.63
7474;BME280;3778;42.572;23.426;2024-01-27T10:20:31;94126.81;;;3.72;62.71
7474;BME280;3778;42.572;23.426;2024-01-27T10:22:57;94119.72;;;3.74;61.12
7474;BME280;3778;42.572;23.426;2024-01-27T10:25:23;94139.78;;;3.71;62.32
7474;BME280;3778;42.572;23.426;2024-01-27T10:27:48;94120.66;;;3.80;63.13
7474;BME280;3778;42.572;23.426;2024-01-27T10:30:17;94121.28;;;3.75;61.79
7474;BME280;3778;42.572;23.426;2024-01-27T10:32:43;94130.31;;;3.78;62.65
7474;BME280;3778;42.572;23.426;2024-01-27T10:35:09;94134.97;;;3.81;62.19
7474;BME280;3778;42.572;23.426;2024-01-27T10:37:38;94136.19;;;3.79;63.77
7474;BME280;3778;42.572;23.426;2024-01-27T10:40:05;94136.06;;;3.67;63.98
7474;BME280;3778;42.572;23.426;2024-01-27T10:42:34;94156.28;;;3.62;63.38
7474;BME280;3778;42.572;23.426;2024-01-27T10:45:00;94193.91;;;3.66;63.36
7474;BME280;3778;42.572;23.426;2024-01-27T10:47:30;94135.53;;;3.52;63.41
7474;BME280;3778;42.572;23.426;2024-01-27T10:49:56;94129.28;;;3.54;64.19
7474;BME280;3778;42.572;23.426;2024-01-27T10:52:29;94129.28;;;3.54;64.19
7474;BME280;3778;42.572;23.426;2024-01-27T10:55:03;94151.41;;;3.60;64.16
7474;BME280;3778;42.572;23.426;2024-01-27T10:57:30;94155.91;;;3.58;63.03
7474;BME280;3778;42.572;23.426;2024-01-27T10:59:57;94144.19;;;3.50;63.43
7474;BME280;3778;42.572;23.426;2024-01-27T11:02:23;94154.28;;;3.64;64.84
7474;BME280;3778;42.572;23.426;2024-01-27T11:04:50;94148.41;;;3.63;63.36
7474;BME280;3778;42.572;23.426;2024-01-27T11:07:19;94144.09;;;3.70;64.31
7474;BME280;3778;42.572;23.426;2024-01-27T11:09:46;94220.94;;;3.67;62.59
7474;BME280;3778;42.572;23.426;2024-01-27T11:12:13;94149.31;;;3.75;62.78
7474;BME280;3778;42.572;23.426;2024-01-27T11:14:39;94167.81;;;3.71;62.81
7474;BME280;3778;42.572;23.426;2024-01-27T11:17:04;94198.47;;;3.51;64.36
7474;BME280;3778;42.572;23.426;2024-01-27T11:19:30;94225.53;;;3.52;63.38
7474;BME280;3778;42.572;23.426;2024-01-27T11:22:04;94177.53;;;3.49;65.18
7474;BME280;3778;42.572;23.426;2024-01-27T11:24:29;94168.50;;;3.53;65.95
7474;BME280;3778;42.572;23.426;2024-01-27T11:27:05;94198.50;;;3.44;64.25
7474;BME280;3778;42.572;23.426;2024-01-27T11:29:32;94186.16;;;3.48;65.13
7474;BME280;3778;42.572;23.426;2024-01-27T11:32:00;94177.72;;;3.47;64.24
7474;BME280;3778;42.572;23.426;2024-01-27T11:34:27;94203.66;;;3.31;64.22
7474;BME280;3778;42.572;23.426;2024-01-27T11:36:52;94170.00;;;3.22;66.37
7474;BME280;3778;42.572;23.426;2024-01-27T11:39:28;94190.94;;;3.25;66.37
7474;BME280;3778;42.572;23.426;2024-01-27T11:42:04;94194.69;;;3.15;65.75
7474;BME280;3778;42.572;23.426;2024-01-27T11:44:30;94193.69;;;3.23;66.27
7474;BME280;3778;42.572;23.426;2024-01-27T11:46:55;94220.38;;;3.14;65.87
7474;BME280;3778;42.572;23.426;2024-01-27T11:49:20;94220.56;;;3.12;66.57
7474;BME280;3778;42.572;23.426;2024-01-27T11:51:47;94195.09;;;3.12;66.96
7474;BME280;3778;42.572;23.426;2024-01-27T11:54:12;94191.38;;;3.15;66.52
7474;BME280;3778;42.572;23.426;2024-01-27T11:56:38;94214.47;;;3.20;65.46
7474;BME280;3778;42.572;23.426;2024-01-27T11:59:04;94203.31;;;3.14;65.45
7474;BME280;3778;42.572;23.426;2024-01-27T12:01:29;94209.59;;;3.12;66.26
7474;BME280;3778;42.572;23.426;2024-01-27T12:03:55;94210.59;;;3.11;64.75
7474;BME280;3778;42.572;23.426;2024-01-27T12:06:20;94198.84;;;3.10;65.01
7474;BME280;3778;42.572;23.426;2024-01-27T12:08:46;94191.53;;;3.20;65.28
7474;BME280;3778;42.572;23.426;2024-01-27T12:11:15;94192.31;;;3.20;65.96
7474;BME280;3778;42.572;23.426;2024-01-27T12:13:41;94195.66;;;3.21;64.69
7474;BME280;3778;42.572;23.426;2024-01-27T12:16:07;94211.31;;;3.25;64.32
7474;BME280;3778;42.572;23.426;2024-01-27T12:18:34;94208.50;;;3.39;62.83
7474;BME280;3778;42.572;23.426;2024-01-27T12:21:00;94222.63;;;3.42;64.24
7474;BME280;3778;42.572;23.426;2024-01-27T12:23:25;94229.72;;;3.40;63.26
7474;BME280;3778;42.572;23.426;2024-01-27T12:25:54;94215.59;;;3.37;63.64
7474;BME280;3778;42.572;23.426;2024-01-27T12:28:22;94226.34;;;3.39;63.77
7474;BME280;3778;42.572;23.426;2024-01-27T12:30:49;94211.06;;;3.46;63.19
7474;BME280;3778;42.572;23.426;2024-01-27T12:33:15;94230.03;;;3.50;61.27
7474;BME280;3778;42.572;23.426;2024-01-27T12:35:45;94248.88;;;3.49;59.64
7474;BME280;3778;42.572;23.426;2024-01-27T12:38:10;94222.50;;;3.68;58.51
7474;BME280;3778;42.572;23.426;2024-01-27T12:40:37;94229.44;;;4.56;57.46
7474;BME280;3778;42.572;23.426;2024-01-27T12:43:03;94208.63;;;4.77;56.11
7474;BME280;3778;42.572;23.426;2024-01-27T12:45:28;94210.34;;;5.38;54.59
7474;BME280;3778;42.572;23.426;2024-01-27T13:03:44;94207.03;;;5.68;50.90
7474;BME280;3778;42.572;23.426;2024-01-27T13:06:10;94216.53;;;5.31;53.35
7474;BME280;3778;42.572;23.426;2024-01-27T13:08:36;94220.09;;;5.30;52.52
7474;BME280;3778;42.572;23.426;2024-01-27T13:11:01;94193.81;;;5.04;51.79
7474;BME280;3778;42.572;23.426;2024-01-27T13:13:28;94235.19;;;5.31;50.52
7474;BME280;3778;42.572;23.426;2024-01-27T13:15:53;94206.16;;;5.44;50.22
7474;BME280;3778;42.572;23.426;2024-01-27T13:18:18;94248.75;;;5.14;49.51
7474;BME280;3778;42.572;23.426;2024-01-27T13:20:44;94224.13;;;5.37;48.93
7474;BME280;3778;42.572;23.426;2024-01-27T13:23:09;94227.66;;;5.73;48.17
7474;BME280;3778;42.572;23.426;2024-01-27T13:25:34;94253.56;;;5.77;44.95
7474;BME280;3778;42.572;23.426;2024-01-27T13:28:00;94207.53;;;5.95;45.99